createdAt,value
2018-11-13T00:03:01.789Z,100105.59
2018-11-13T00:06:06.376Z,100110.88
2018-11-13T00:09:10.880Z,100107.88
2018-11-13T00:12:15.495Z,100111.83
2018-11-13T00:15:20.057Z,100109.78
2018-11-13T00:18:24.514Z,100131.55
2018-11-13T00:21:29.186Z,100138.02
2018-11-13T00:24:33.675Z,100132.27
2018-11-13T00:27:38.345Z,100133.01
2018-11-13T00:30:42.908Z,100137.26
2018-11-13T00:33:47.423Z,100148.87
2018-11-13T00:36:51.975Z,100172.37
2018-11-13T00:39:56.517Z,100153.94
2018-11-13T00:43:01.149Z,100148.20
2018-11-13T00:46:05.904Z,100150.73
2018-11-13T00:49:10.352Z,100163.47
2018-11-13T00:52:14.939Z,100163.66
2018-11-13T00:55:19.902Z,100162.01
2018-11-13T00:58:24.431Z,100172.24
2018-11-13T01:01:28.965Z,100166.59
2018-11-13T01:04:33.447Z,100182.52
2018-11-13T01:07:38.121Z,100176.00
2018-11-13T01:10:42.568Z,100156.12
2018-11-13T01:13:47.154Z,100151.25
2018-11-13T01:16:51.783Z,100169.50
2018-11-13T01:19:56.349Z,100176.50
2018-11-13T01:23:00.884Z,100175.62
2018-11-13T01:26:05.659Z,100173.41
2018-11-13T01:29:10.199Z,100171.43
2018-11-13T01:32:14.875Z,100172.31
2018-11-13T01:35:19.803Z,100158.13
2018-11-13T01:38:24.339Z,100160.05
2018-11-13T01:41:28.995Z,100170.58
2018-11-13T01:44:33.681Z,100180.60
2018-11-13T01:47:38.228Z,100154.42
2018-11-13T01:50:42.763Z,100161.11
2018-11-13T01:53:47.358Z,100173.66
2018-11-13T01:56:51.918Z,100181.36
2018-11-13T01:59:56.527Z,100183.20
2018-11-13T02:03:01.056Z,100170.94
2018-11-13T02:06:06.656Z,100168.03
2018-11-13T02:09:11.641Z,100172.31
2018-11-13T02:12:16.191Z,100162.05
2018-11-13T02:15:21.328Z,100157.58
2018-11-13T02:18:25.843Z,100153.88
2018-11-13T02:21:30.458Z,100146.48
2018-11-13T02:24:35.056Z,100173.11
2018-11-13T02:27:40.058Z,100186.95
2018-11-13T02:30:44.702Z,100181.73
2018-11-13T02:33:49.343Z,100165.13
2018-11-13T02:36:53.956Z,100172.83
2018-11-13T02:39:58.509Z,100165.34
2018-11-13T02:43:02.985Z,100158.73
2018-11-13T02:46:07.523Z,100158.06
2018-11-13T02:49:12.010Z,100149.42
2018-11-13T02:52:16.527Z,100159.02
2018-11-13T02:55:21.190Z,100150.36
2018-11-13T02:58:25.698Z,100154.44
2018-11-13T03:01:30.288Z,100157.19
2018-11-13T03:04:34.928Z,100159.23
2018-11-13T03:07:45.790Z,100169.23
2018-11-13T03:10:50.286Z,100187.27
2018-11-13T03:13:54.897Z,100196.65
2018-11-13T03:16:59.415Z,100189.41
2018-11-13T03:20:04.047Z,100205.03
2018-11-13T03:23:08.587Z,100205.21
2018-11-13T03:26:13.249Z,100220.86
2018-11-13T03:29:17.796Z,100244.16
2018-11-13T03:32:22.344Z,100245.11
2018-11-13T03:35:26.943Z,100232.73
2018-11-13T03:38:31.537Z,100228.05
2018-11-13T03:41:36.250Z,100230.47
2018-11-13T03:44:40.949Z,100229.52
2018-11-13T03:47:45.532Z,100232.39
2018-11-13T03:50:50.104Z,100237.98
2018-11-13T03:53:54.602Z,100238.69
2018-11-13T03:56:59.212Z,100245.75
2018-11-13T04:00:03.889Z,100249.97
2018-11-13T04:03:08.426Z,100249.97
2018-11-13T04:06:12.971Z,100253.00
2018-11-13T04:09:17.585Z,100243.19
2018-11-13T04:12:22.083Z,100255.64
2018-11-13T04:15:26.841Z,100257.37
2018-11-13T04:18:31.353Z,100257.37
2018-11-13T04:21:36.779Z,100264.50
2018-11-13T04:24:41.315Z,100254.63
2018-11-13T04:27:45.941Z,100261.02
2018-11-13T04:30:50.622Z,100261.81
2018-11-13T04:33:55.114Z,100260.86
2018-11-13T04:36:59.850Z,100267.59
2018-11-13T04:40:05.487Z,100271.76
2018-11-13T04:43:10.098Z,100280.59
2018-11-13T04:46:14.825Z,100269.55
2018-11-13T04:49:19.407Z,100279.00
2018-11-13T04:52:23.996Z,100275.45
2018-11-13T04:55:28.509Z,100274.29
2018-11-13T04:58:33.067Z,100290.62
2018-11-13T05:01:37.750Z,100268.73
2018-11-13T05:04:42.342Z,100276.80
2018-11-13T05:07:48.236Z,100290.58
2018-11-13T05:10:52.868Z,100292.30
2018-11-13T05:13:57.474Z,100297.25
2018-11-13T05:17:01.958Z,100283.03
2018-11-13T05:20:07.334Z,100282.26
2018-11-13T05:23:11.972Z,100271.63
2018-11-13T05:26:16.733Z,100268.14
2018-11-13T05:29:21.372Z,100274.88
2018-11-13T05:32:25.988Z,100283.89
2018-11-13T05:35:30.544Z,100272.66
2018-11-13T05:38:35.153Z,100271.05
2018-11-13T05:41:39.751Z,100287.33
2018-11-13T05:44:44.307Z,100300.50
2018-11-13T05:47:48.964Z,100315.28
2018-11-13T05:50:53.537Z,100323.36
2018-11-13T05:53:58.155Z,100327.79
2018-11-13T05:57:02.836Z,100331.29
2018-11-13T06:00:17.026Z,100351.73
2018-11-13T06:03:21.688Z,100358.82
2018-11-13T06:06:26.200Z,100361.42
2018-11-13T06:09:30.824Z,100363.61
2018-11-13T06:12:35.419Z,100360.53
2018-11-13T06:15:39.995Z,100369.64
2018-11-13T06:18:44.586Z,100380.02
2018-11-13T06:21:49.187Z,100383.59
2018-11-13T06:24:53.833Z,100392.83
2018-11-13T06:27:58.306Z,100399.86
2018-11-13T06:31:02.927Z,100401.28
2018-11-13T06:34:07.443Z,100400.07
2018-11-13T06:37:12.722Z,100396.86
2018-11-13T06:40:17.523Z,100402.38
2018-11-13T06:43:22.086Z,100403.72
2018-11-13T06:46:26.657Z,100406.98
2018-11-13T06:49:31.371Z,100402.38
2018-11-13T06:52:35.923Z,100412.11
2018-11-13T06:55:43.232Z,100413.84
2018-11-13T06:58:47.755Z,100425.04
2018-11-13T07:01:52.352Z,100439.28
2018-11-13T07:04:56.898Z,100433.25
2018-11-13T07:08:01.606Z,100457.61
2018-11-13T07:11:06.404Z,100455.69
2018-11-13T07:14:10.943Z,100468.76
2018-11-13T07:17:15.544Z,100476.79
2018-11-13T07:20:21.424Z,100482.17
2018-11-13T07:23:25.992Z,100487.56
2018-11-13T07:26:30.611Z,100492.03
2018-11-13T07:29:35.213Z,100504.28
2018-11-13T07:32:40.413Z,100505.29
2018-11-13T07:35:45.070Z,100508.45
2018-11-13T07:38:49.649Z,100514.53
2018-11-13T07:41:54.551Z,100501.85
2018-11-13T07:44:59.262Z,100502.11
2018-11-13T07:48:03.959Z,100488.04
2018-11-13T07:51:08.628Z,100488.81
2018-11-13T07:54:13.205Z,100493.50
2018-11-13T07:57:17.827Z,100488.30
2018-11-13T08:00:23.820Z,100485.44
2018-11-13T08:03:33.789Z,100478.58
2018-11-13T08:06:38.281Z,100468.79
2018-11-13T08:09:43.104Z,100462.48
2018-11-13T08:12:47.700Z,100467.19
2018-11-13T08:15:52.360Z,100487.71
2018-11-13T08:18:56.843Z,100499.46
2018-11-13T08:22:01.524Z,100517.91
2018-11-13T08:25:07.688Z,100514.37
2018-11-13T08:28:12.174Z,100519.83
2018-11-13T08:31:16.685Z,100519.09
2018-11-13T08:34:21.403Z,100518.78
2018-11-13T08:37:26.267Z,100502.46
2018-11-13T08:40:30.903Z,100511.81
2018-11-13T08:43:35.595Z,100527.93
2018-11-13T08:46:40.202Z,100545.99
2018-11-13T08:49:44.827Z,100534.32
2018-11-13T08:52:49.458Z,100538.89
2018-11-13T08:55:54.023Z,100551.34
2018-11-13T08:58:58.641Z,100556.45
2018-11-13T09:02:03.159Z,100563.79
2018-11-13T09:05:19.898Z,100586.20
2018-11-13T09:08:24.660Z,100594.89
2018-11-13T09:11:29.343Z,100595.61
2018-11-13T09:14:33.946Z,100598.38
2018-11-13T09:17:38.632Z,100591.28
2018-11-13T09:20:43.277Z,100600.13
2018-11-13T09:23:47.874Z,100586.88
2018-11-13T09:26:52.426Z,100592.75
2018-11-13T09:29:57.083Z,100598.78
2018-11-13T09:33:01.502Z,100611.36
2018-11-13T09:36:06.398Z,100624.09
2018-11-13T09:39:12.408Z,100625.73
2018-11-13T09:42:17.030Z,100638.58
2018-11-13T09:45:21.659Z,100642.63
2018-11-13T09:48:26.265Z,100648.04
2018-11-13T09:51:30.826Z,100641.88
2018-11-13T09:54:35.390Z,100663.25
2018-11-13T09:57:40.103Z,100662.55
2018-11-13T10:00:44.779Z,100687.81
2018-11-13T10:03:50.043Z,100662.83
2018-11-13T10:32:03.644Z,100681.48
2018-11-13T10:35:10.337Z,100680.50
2018-11-13T10:38:14.983Z,100671.89
2018-11-13T10:41:19.571Z,100679.39
2018-11-13T10:44:24.180Z,100680.09
2018-11-13T10:47:29.291Z,100676.88
2018-11-13T10:50:33.897Z,100674.19
2018-11-13T10:53:38.463Z,100679.64
2018-11-13T10:56:42.971Z,100681.44
2018-11-13T10:59:47.574Z,100692.25
2018-11-13T11:02:54.212Z,100689.94
2018-11-13T11:05:58.735Z,100683.96
2018-11-13T11:09:04.526Z,100687.86
2018-11-13T11:12:09.185Z,100694.34
2018-11-13T11:15:13.689Z,100681.77
2018-11-13T11:18:18.344Z,100679.38
2018-11-13T11:21:22.927Z,100688.23
2018-11-13T11:24:27.497Z,100688.13
2018-11-13T11:27:32.022Z,100689.38
2018-11-13T11:30:36.476Z,100685.30
2018-11-13T11:33:41.060Z,100690.00
2018-11-13T11:36:45.768Z,100684.16
2018-11-13T11:39:50.363Z,100686.66
2018-11-13T11:42:54.986Z,100681.84
2018-11-13T11:45:59.637Z,100690.77
2018-11-13T11:49:04.621Z,100691.45
2018-11-13T11:52:09.103Z,100681.80
2018-11-13T11:55:14.126Z,100700.84
2018-11-13T11:58:18.735Z,100701.62
2018-11-13T12:01:23.277Z,100701.37
2018-11-13T12:04:27.817Z,100700.47
2018-11-13T12:07:32.474Z,100694.64
2018-11-13T12:10:36.961Z,100703.61
2018-11-13T12:13:41.615Z,100707.77
2018-11-13T12:16:46.144Z,100700.53
2018-11-13T12:19:50.731Z,100695.12
2018-11-13T12:22:55.390Z,100701.30
2018-11-13T12:26:00.091Z,100708.46
2018-11-13T12:29:04.930Z,100717.40
2018-11-13T12:32:09.810Z,100713.09
2018-11-13T12:35:15.523Z,100714.78
2018-11-13T12:38:20.061Z,100713.66
2018-11-13T12:41:24.629Z,100724.73
2018-11-13T12:44:29.286Z,100718.50
2018-11-13T12:47:34.133Z,100717.47
2018-11-13T12:50:43.908Z,100715.39
2018-11-13T12:53:48.536Z,100718.64
2018-11-13T12:56:53.185Z,100731.63
2018-11-13T12:59:57.862Z,100729.33
2018-11-13T13:03:02.342Z,100731.21
2018-11-13T13:06:07.463Z,100732.37
2018-11-13T13:09:12.017Z,100734.77
2018-11-13T13:12:16.718Z,100731.12
2018-11-13T13:15:21.461Z,100729.36
2018-11-13T13:18:26.191Z,100727.98
2018-11-13T13:21:30.912Z,100725.17
2018-11-13T13:24:36.157Z,100734.02
2018-11-13T13:27:41.059Z,100731.20
2018-11-13T13:30:45.681Z,100739.05
2018-11-13T13:33:50.318Z,100739.66
2018-11-13T13:36:55.008Z,100739.86
2018-11-13T13:39:59.555Z,100731.86
2018-11-13T13:43:04.215Z,100736.34
2018-11-13T13:46:08.861Z,100731.41
2018-11-13T13:49:13.386Z,100737.63
2018-11-13T13:52:17.982Z,100742.45
2018-11-13T13:55:22.882Z,100737.55
2018-11-13T13:58:27.564Z,100744.25
2018-11-13T14:01:32.194Z,100754.89
2018-11-13T14:04:36.775Z,100767.23
2018-11-13T14:07:41.485Z,100766.63
2018-11-13T14:10:46.060Z,100763.81
2018-11-13T14:13:51.562Z,100760.38
2018-11-13T14:16:56.101Z,100770.30
2018-11-13T14:20:00.684Z,100762.72
2018-11-13T14:23:05.501Z,100776.37
2018-11-13T14:26:10.245Z,100783.95
2018-11-13T14:29:14.851Z,100776.98
2018-11-13T14:32:19.314Z,100787.27
2018-11-13T14:35:23.828Z,100787.67
2018-11-13T14:38:28.349Z,100789.08
2018-11-13T14:41:32.910Z,100798.73
2018-11-13T14:44:37.561Z,100800.35
2018-11-13T14:47:43.501Z,100804.67
2018-11-13T14:50:48.101Z,100812.94
2018-11-13T14:53:52.682Z,100810.32
2018-11-13T14:56:57.392Z,100813.14
2018-11-13T15:00:02.102Z,100821.27
2018-11-13T15:03:08.564Z,100821.51
2018-11-13T15:06:13.112Z,100823.81
2018-11-13T15:09:17.603Z,100827.63
2018-11-13T15:12:22.293Z,100826.45
2018-11-13T15:15:26.882Z,100826.11
2018-11-13T15:18:31.352Z,100835.01
2018-11-13T15:21:36.194Z,100851.40
2018-11-13T15:24:40.588Z,100853.47
2018-11-13T15:27:45.908Z,100852.61
2018-11-13T15:30:51.357Z,100860.94
2018-11-13T15:33:55.814Z,100861.80
2018-11-13T15:37:00.363Z,100869.00
2018-11-13T15:40:05.962Z,100873.55
2018-11-13T15:43:10.566Z,100877.51
2018-11-13T15:46:15.087Z,100886.51
2018-11-13T15:49:19.616Z,100882.95
2018-11-13T15:52:24.292Z,100889.94
2018-11-13T15:55:28.752Z,100901.84
2018-11-13T15:58:33.440Z,100907.42
2018-11-13T16:01:37.957Z,100908.41
2018-11-13T16:04:42.566Z,100909.45
2018-11-13T16:07:47.223Z,100912.33
2018-11-13T16:10:51.786Z,100909.19
2018-11-13T16:13:56.393Z,100918.02
2018-11-13T16:17:00.979Z,100920.79
2018-11-13T16:20:06.071Z,100923.99
2018-11-13T16:23:10.642Z,100930.52
2018-11-13T16:26:15.265Z,100934.83
2018-11-13T16:29:19.749Z,100935.02
2018-11-13T16:32:24.394Z,100936.56
2018-11-13T16:35:29.787Z,100948.05
2018-11-13T16:38:34.505Z,100947.89
2018-11-13T16:41:38.936Z,100962.19
2018-11-13T16:44:43.798Z,100966.28
2018-11-13T16:47:48.376Z,100963.25
2018-11-13T16:50:52.970Z,100967.62
2018-11-13T16:54:02.718Z,100966.30
2018-11-13T16:57:07.933Z,100976.72
2018-11-13T17:00:12.526Z,100981.06
2018-11-13T17:03:17.204Z,100982.05
2018-11-13T17:06:21.804Z,100988.77
2018-11-13T17:09:26.503Z,100992.47
2018-11-13T17:12:31.057Z,100990.30
2018-11-13T17:15:35.637Z,100991.48
2018-11-13T17:18:40.255Z,100992.63
2018-11-13T17:21:44.888Z,100996.48
2018-11-13T17:24:49.469Z,101002.87
2018-11-13T17:27:54.772Z,100999.36
2018-11-13T17:30:59.444Z,100992.98
2018-11-13T17:34:04.088Z,100995.48
2018-11-13T17:37:08.712Z,101002.52
2018-11-13T17:40:18.591Z,101010.55
2018-11-13T17:43:23.273Z,101007.14
2018-11-13T17:46:27.760Z,101009.80
2018-11-13T17:49:32.284Z,101016.03
2018-11-13T17:52:36.929Z,101023.54
2018-11-13T17:55:41.921Z,101027.41
2018-11-13T17:58:46.505Z,101032.31
2018-11-13T18:01:51.205Z,101031.38
2018-11-13T18:04:55.760Z,101028.52
2018-11-13T18:08:01.279Z,101028.98
2018-11-13T18:11:06.497Z,101035.25
2018-11-13T18:14:11.127Z,101035.87
2018-11-13T18:17:15.760Z,101039.09
2018-11-13T18:20:22.708Z,101039.92
2018-11-13T18:23:27.390Z,101046.30
2018-11-13T18:26:31.952Z,101047.45
2018-11-13T18:29:36.484Z,101051.12
2018-11-13T18:32:41.636Z,101052.34
2018-11-13T18:35:46.257Z,101058.58
2018-11-13T18:38:51.069Z,101061.44
2018-11-13T18:41:55.491Z,101066.63
2018-11-13T18:45:00.214Z,101066.48
2018-11-13T18:48:04.825Z,101068.53
2018-11-13T18:51:09.547Z,101068.91
2018-11-13T18:54:14.179Z,101072.61
2018-11-13T18:57:18.861Z,101075.09
2018-11-13T19:00:32.820Z,101074.55
2018-11-13T19:03:37.513Z,101080.17
2018-11-13T19:06:42.222Z,101083.58
2018-11-13T19:09:46.860Z,101081.73
2018-11-13T19:12:51.641Z,101084.56
2018-11-13T19:15:59.366Z,101085.94
2018-11-13T19:19:04.244Z,101092.61
2018-11-13T19:22:08.986Z,101090.53
2018-11-13T19:25:14.541Z,101081.98
2018-11-13T19:28:19.113Z,101079.44
2018-11-13T19:31:23.754Z,101086.86
2018-11-13T19:34:28.451Z,101085.55
2018-11-13T19:37:33.078Z,101095.79
2018-11-13T19:40:37.714Z,101098.30
2018-11-13T19:43:42.360Z,101094.10
2018-11-13T19:46:47.267Z,101100.48
2018-11-13T19:49:51.875Z,101092.91
2018-11-13T19:52:56.660Z,101103.73
2018-11-13T19:56:01.990Z,101103.44
2018-11-13T19:59:06.776Z,101106.62
2018-11-13T20:02:11.546Z,101095.77
2018-11-13T20:05:16.288Z,101106.90
2018-11-13T20:08:20.983Z,101118.00
2018-11-13T20:11:26.056Z,101125.04
2018-11-13T20:14:30.690Z,101122.84
2018-11-13T20:17:35.268Z,101120.39
2018-11-13T20:20:39.875Z,101123.40
2018-11-13T20:23:44.496Z,101119.55
2018-11-13T20:26:49.827Z,101110.48
2018-11-13T20:29:54.540Z,101114.34
2018-11-13T20:32:59.231Z,101107.30
2018-11-13T20:36:03.847Z,101115.02
2018-11-13T20:39:12.128Z,101110.47
2018-11-13T20:42:16.741Z,101114.00
2018-11-13T20:45:21.466Z,101108.81
2018-11-13T20:48:26.227Z,101106.62
2018-11-13T20:51:30.884Z,101110.17
2018-11-13T20:54:35.418Z,101109.62
2018-11-13T20:57:41.490Z,101119.02
2018-11-13T21:00:46.027Z,101117.97
2018-11-13T21:03:50.784Z,101121.49
2018-11-13T21:06:55.346Z,101125.29
2018-11-13T21:09:59.972Z,101125.23
2018-11-13T21:13:05.472Z,101125.19
2018-11-13T21:16:10.215Z,101132.22
2018-11-13T21:19:14.637Z,101131.57
2018-11-13T21:22:19.311Z,101123.67
2018-11-13T21:25:24.852Z,101130.25
2018-11-13T21:28:29.484Z,101140.50
2018-11-13T21:31:34.218Z,101142.14
2018-11-13T21:34:38.949Z,101147.12
2018-11-13T21:37:44.819Z,101145.47
2018-11-13T21:40:49.463Z,101148.53
2018-11-13T21:43:54.152Z,101152.02
2018-11-13T21:46:58.754Z,101158.94
2018-11-13T21:50:07.964Z,101151.38
2018-11-13T21:53:12.584Z,101163.10
2018-11-13T21:56:17.178Z,101161.34
2018-11-13T21:59:21.708Z,101167.76
2018-11-13T22:02:26.386Z,101170.33
2018-11-13T22:05:31.667Z,101168.58
2018-11-13T22:08:36.311Z,101170.88
2018-11-13T22:11:41.048Z,101170.99
2018-11-13T22:14:45.561Z,101173.19
2018-11-13T22:17:50.227Z,101177.91
2018-11-13T22:20:54.821Z,101181.69
2018-11-13T22:23:59.433Z,101180.35
2018-11-13T22:27:04.054Z,101186.59
2018-11-13T22:30:11.522Z,101187.46
2018-11-13T22:33:16.099Z,101185.04
2018-11-13T22:36:20.700Z,101182.20
2018-11-13T22:39:25.251Z,101180.23
2018-11-13T22:42:29.740Z,101182.27
2018-11-13T22:45:34.935Z,101177.84
2018-11-13T22:48:39.550Z,101187.46
2018-11-13T22:51:44.166Z,101186.25
2018-11-13T22:54:48.693Z,101188.33
2018-11-13T22:57:54.784Z,101185.52
2018-11-13T23:00:59.068Z,101182.98
2018-11-13T23:04:03.760Z,101177.06
2018-11-13T23:07:08.361Z,101176.78
2018-11-13T23:10:13.966Z,101183.24
2018-11-13T23:13:18.622Z,101187.25
2018-11-13T23:16:23.208Z,101187.72
2018-11-13T23:19:27.747Z,101193.72
2018-11-13T23:22:32.446Z,101190.70
2018-11-13T23:25:37.074Z,101191.59
2018-11-13T23:28:41.636Z,101192.72
2018-11-13T23:31:46.545Z,101195.69
2018-11-13T23:34:50.960Z,101199.55
2018-11-13T23:37:57.024Z,101204.41
2018-11-13T23:41:01.487Z,101204.00
2018-11-13T23:44:06.423Z,101205.70
2018-11-13T23:47:11.114Z,101212.91
2018-11-13T23:50:16.653Z,101210.80
2018-11-13T23:53:21.269Z,101215.86
2018-11-13T23:56:25.990Z,101208.34
2018-11-13T23:59:30.662Z,101210.37
